Time;durP1;ratioP1;P1;durP2;ratioP2;P2;SDS_P1;SDS_P2;PMS_P1;PMS_P2;Temp;Humidity;BMP_temperature;BMP_pressure;BME280_temperature;BME280_humidity;BME280_pressure;Samples;Min_cycle;Max_cycle;Signal;HPM_P1;HPM_P2
2021/09/12 00:02:23;;;;;;;13.65;7.80;;;12.60;90.10;;;;;;5018922;28;20030;-70
2021/09/12 00:04:48;;;;;;;9.43;6.88;;;12.60;89.90;;;;;;5016918;28;20022;-70
2021/09/12 00:07:14;;;;;;;13.43;7.10;;;12.60;90.30;;;;;;5014260;28;20081;-70
2021/09/12 00:09:42;;;;;;;11.68;7.53;;;12.50;90.40;;;;;;5014583;28;20084;-71
2021/09/12 00:12:08;;;;;;;15.52;7.80;;;12.50;90.10;;;;;;5015954;28;20037;-70
2021/09/12 00:14:37;;;;;;;9.98;6.63;;;12.50;89.80;;;;;;5016999;28;20026;-70
2021/09/12 00:17:03;;;;;;;14.23;7.43;;;12.50;90.10;;;;;;5014786;28;20028;-69
2021/09/12 00:19:29;;;;;;;9.85;6.57;;;12.50;90.10;;;;;;5011036;28;20112;-70
2021/09/12 00:21:55;;;;;;;13.98;8.10;;;12.50;89.90;;;;;;5017181;28;20072;-70
2021/09/12 00:24:20;;;;;;;11.25;7.60;;;12.50;89.90;;;;;;5014815;28;20033;-70
2021/09/12 00:26:46;;;;;;;15.38;7.22;;;12.40;89.90;;;;;;5012494;28;20037;-70
2021/09/12 00:29:12;;;;;;;12.15;7.85;;;12.40;89.90;;;;;;5021608;28;20044;-70
2021/09/12 00:31:37;;;;;;;12.70;7.88;;;12.40;90.00;;;;;;5016820;28;20030;-70
2021/09/12 00:34:03;;;;;;;11.32;7.68;;;12.40;89.70;;;;;;5016049;28;20026;-70
2021/09/12 00:36:28;;;;;;;10.60;7.68;;;12.40;89.80;;;;;;5016582;28;20057;-70
2021/09/12 00:38:54;;;;;;;14.07;8.25;;;12.40;89.70;;;;;;5010796;28;20053;-69
2021/09/12 00:41:20;;;;;;;12.07;7.50;;;12.40;89.70;;;;;;5016179;28;20434;-69
2021/09/12 00:43:45;;;;;;;11.77;7.90;;;12.40;89.60;;;;;;5015541;28;20041;-69
2021/09/12 00:46:11;;;;;;;11.25;7.72;;;12.40;89.70;;;;;;5013684;28;20026;-69
2021/09/12 00:48:37;;;;;;;17.08;8.65;;;12.40;89.80;;;;;;5016259;28;20021;-70
2021/09/12 00:51:05;;;;;;;11.82;7.07;;;12.40;89.80;;;;;;5015586;28;20046;-69
2021/09/12 00:53:37;;;;;;;12.77;7.90;;;12.40;89.70;;;;;;5012059;28;20029;-72
2021/09/12 00:56:03;;;;;;;12.10;7.82;;;12.40;89.60;;;;;;5014867;28;20026;-71
2021/09/12 00:58:29;;;;;;;10.50;7.45;;;12.40;89.90;;;;;;5016847;28;20319;-71
2021/09/12 01:00:55;;;;;;;14.50;7.25;;;12.30;90.00;;;;;;5012673;28;20030;-71
2021/09/12 01:03:22;;;;;;;13.23;6.18;;;12.20;90.00;;;;;;5003367;28;20289;-71
2021/09/12 01:05:48;;;;;;;18.33;8.98;;;12.20;90.00;;;;;;5013258;28;20026;-70
2021/09/12 01:08:14;;;;;;;16.38;8.35;;;12.20;89.70;;;;;;5013931;28;20458;-70
2021/09/12 01:10:42;;;;;;;13.20;8.07;;;12.30;89.60;;;;;;5010791;28;20025;-70
2021/09/12 01:13:08;;;;;;;12.85;7.97;;;12.30;89.70;;;;;;5003893;28;20032;-70
2021/09/12 01:15:34;;;;;;;12.55;8.43;;;12.40;89.60;;;;;;5030353;28;20029;-70
2021/09/12 01:18:00;;;;;;;13.93;8.50;;;12.40;89.70;;;;;;5015024;28;20042;-71
2021/09/12 01:20:26;;;;;;;12.43;8.57;;;12.30;89.90;;;;;;5009512;28;20023;-70
2021/09/12 01:22:52;;;;;;;15.95;9.18;;;12.30;89.80;;;;;;5013380;28;20085;-70
2021/09/12 01:25:19;;;;;;;14.05;8.57;;;12.30;89.90;;;;;;5011190;28;20029;-70
2021/09/12 01:27:44;;;;;;;12.48;8.40;;;12.20;90.00;;;;;;5020144;28;20029;-70
2021/09/12 01:30:11;;;;;;;12.27;8.18;;;12.20;89.80;;;;;;5012434;28;20439;-70
2021/09/12 01:32:37;;;;;;;13.30;8.45;;;12.20;89.70;;;;;;5013671;28;20140;-70
2021/09/12 01:35:04;;;;;;;14.23;8.57;;;12.20;89.70;;;;;;5012834;28;20441;-70
2021/09/12 01:37:29;;;;;;;15.45;8.77;;;12.20;89.60;;;;;;5014492;28;20450;-70
2021/09/12 01:39:55;;;;;;;12.30;7.43;;;12.20;89.60;;;;;;5013136;28;20045;-69
2021/09/12 01:42:21;;;;;;;17.20;9.60;;;12.30;89.70;;;;;;5013814;28;20160;-70
2021/09/12 01:44:48;;;;;;;13.77;9.18;;;12.30;89.70;;;;;;5010979;28;20027;-70
2021/09/12 01:47:14;;;;;;;13.20;7.55;;;12.30;89.60;;;;;;5012561;28;20022;-70
2021/09/12 01:49:41;;;;;;;12.88;7.65;;;12.20;90.00;;;;;;5030063;28;20022;-70
2021/09/12 01:52:10;;;;;;;14.13;9.10;;;12.10;90.00;;;;;;5010585;28;20055;-70
2021/09/12 01:54:36;;;;;;;14.98;9.27;;;12.10;89.80;;;;;;5009990;28;20434;-70
2021/09/12 01:57:02;;;;;;;13.30;8.38;;;12.10;89.70;;;;;;5014773;28;20133;-71
2021/09/12 01:59:27;;;;;;;13.88;7.85;;;12.10;89.70;;;;;;5013796;28;20100;-70
2021/09/12 02:01:53;;;;;;;14.13;8.20;;;12.10;89.80;;;;;;5014495;28;20109;-70
2021/09/12 02:04:21;;;;;;;13.20;8.50;;;12.10;89.60;;;;;;5013217;28;20041;-70
2021/09/12 02:06:47;;;;;;;14.27;8.60;;;12.10;89.60;;;;;;5018352;28;20331;-69
2021/09/12 02:09:16;;;;;;;12.63;8.13;;;12.10;89.70;;;;;;5020876;28;20040;-70
2021/09/12 02:11:42;;;;;;;11.27;7.28;;;12.10;89.80;;;;;;5029279;28;20026;-70
2021/09/12 02:14:07;;;;;;;13.52;7.80;;;12.00;89.80;;;;;;5029527;28;20033;-70
2021/09/12 02:16:33;;;;;;;16.02;8.70;;;12.00;89.60;;;;;;5026758;28;20022;-70
2021/09/12 02:18:59;;;;;;;13.55;8.73;;;11.90;89.60;;;;;;5019740;28;20022;-70
2021/09/12 02:21:24;;;;;;;13.07;8.02;;;12.00;89.50;;;;;;5017226;28;20030;-71
2021/09/12 02:23:50;;;;;;;15.02;8.93;;;11.90;89.90;;;;;;5015469;28;20065;-71
2021/09/12 02:26:16;;;;;;;18.42;8.80;;;11.90;89.60;;;;;;5018379;28;20459;-70
2021/09/12 02:28:41;;;;;;;18.13;9.02;;;11.90;89.50;;;;;;5019055;28;20076;-70
2021/09/12 02:31:07;;;;;;;15.65;10.07;;;11.90;89.50;;;;;;5018476;28;20026;-70
2021/09/12 02:33:33;;;;;;;15.60;8.98;;;12.10;89.30;;;;;;5018324;28;20101;-71
2021/09/12 02:35:59;;;;;;;13.07;8.57;;;12.00;89.70;;;;;;5019011;28;20077;-70
2021/09/12 02:38:25;;;;;;;14.73;9.07;;;12.00;89.80;;;;;;5017124;28;20029;-69
2021/09/12 02:40:50;;;;;;;16.52;9.38;;;11.90;89.60;;;;;;5018089;28;20061;-70
2021/09/12 02:43:18;;;;;;;18.70;9.88;;;11.90;89.50;;;;;;5018215;28;20368;-70
2021/09/12 02:45:44;;;;;;;15.27;9.25;;;11.90;89.60;;;;;;5018405;28;20057;-69
2021/09/12 02:48:10;;;;;;;15.95;8.80;;;11.90;89.60;;;;;;5034113;28;20382;-70
2021/09/12 02:50:35;;;;;;;18.30;9.32;;;11.80;89.60;;;;;;5017734;28;20089;-70
2021/09/12 02:53:01;;;;;;;15.10;9.50;;;11.90;89.40;;;;;;5017588;28;20034;-69
2021/09/12 02:55:27;;;;;;;11.75;8.25;;;11.90;89.60;;;;;;5016588;28;20026;-70
2021/09/12 02:57:52;;;;;;;14.32;9.63;;;11.80;89.60;;;;;;5018302;28;20426;-70
2021/09/12 03:00:21;;;;;;;19.23;10.57;;;11.90;89.40;;;;;;5018401;28;20156;-70
2021/09/12 03:02:47;;;;;;;16.38;9.18;;;11.80;89.50;;;;;;5018231;28;20435;-70
2021/09/12 03:05:12;;;;;;;14.20;8.93;;;11.90;89.40;;;;;;5019188;28;20109;-70
2021/09/12 03:07:41;;;;;;;11.50;8.18;;;11.90;89.50;;;;;;5009111;28;20065;-70
2021/09/12 03:10:07;;;;;;;18.80;8.77;;;11.80;89.70;;;;;;5016597;28;20096;-70
2021/09/12 03:12:33;;;;;;;17.50;9.48;;;11.70;89.50;;;;;;5018239;28;20036;-70
2021/09/12 03:14:58;;;;;;;16.30;9.60;;;11.70;89.50;;;;;;5017137;28;20038;-70
2021/09/12 03:17:24;;;;;;;16.00;9.95;;;11.70;89.40;;;;;;5018076;28;20022;-70
2021/09/12 03:19:50;;;;;;;14.20;8.65;;;11.80;89.40;;;;;;5015154;28;20438;-70
2021/09/12 03:22:15;;;;;;;19.60;9.65;;;11.70;89.50;;;;;;5017332;28;20029;-70
2021/09/12 03:24:41;;;;;;;13.70;8.60;;;11.70;89.50;;;;;;5015628;28;20314;-71
2021/09/12 03:27:07;;;;;;;15.68;9.38;;;11.70;89.40;;;;;;5018067;28;20029;-70
2021/09/12 03:29:32;;;;;;;13.65;9.38;;;11.70;89.50;;;;;;5017241;28;20040;-70
2021/09/12 03:31:58;;;;;;;16.10;9.15;;;11.70;89.50;;;;;;5016804;28;20026;-70
2021/09/12 03:34:24;;;;;;;13.93;8.05;;;11.60;89.70;;;;;;5015017;28;20029;-70
2021/09/12 03:36:50;;;;;;;16.65;10.07;;;11.60;89.30;;;;;;5017949;28;20312;-69
2021/09/12 03:39:16;;;;;;;14.07;9.20;;;11.60;89.40;;;;;;5015991;28;20042;-69
2021/09/12 03:41:42;;;;;;;14.23;8.95;;;11.50;89.30;;;;;;5017834;28;20445;-69
2021/09/12 03:44:07;;;;;;;14.50;9.13;;;11.60;89.30;;;;;;5017771;28;20030;-69
2021/09/12 03:46:33;;;;;;;17.02;9.40;;;11.50;89.30;;;;;;5017693;28;20422;-69
2021/09/12 03:49:04;;;;;;;15.73;10.07;;;11.60;89.20;;;;;;5017245;28;20109;-71
2021/09/12 03:51:30;;;;;;;15.57;8.77;;;11.60;89.30;;;;;;5012366;28;20437;-71
2021/09/12 03:53:56;;;;;;;15.27;8.63;;;11.60;89.20;;;;;;5015407;28;20046;-70
2021/09/12 03:56:21;;;;;;;12.38;7.68;;;11.60;89.30;;;;;;5006463;28;20029;-71
2021/09/12 03:58:47;;;;;;;15.85;8.65;;;11.50;89.80;;;;;;5015942;28;20465;-70
2021/09/12 04:01:12;;;;;;;14.48;8.73;;;11.30;89.70;;;;;;5015748;28;20037;-70
2021/09/12 04:03:38;;;;;;;16.75;8.05;;;11.30;89.30;;;;;;5016301;28;20113;-69
2021/09/12 04:06:04;;;;;;;13.65;8.43;;;11.40;89.10;;;;;;5016655;28;20109;-69
2021/09/12 04:08:32;;;;;;;15.35;8.73;;;11.40;89.20;;;;;;5015409;28;20212;-70
2021/09/12 04:10:58;;;;;;;12.32;8.30;;;11.40;89.20;;;;;;5016895;28;20117;-70
2021/09/12 04:13:24;;;;;;;13.25;8.70;;;11.40;89.40;;;;;;5016514;28;20173;-70
2021/09/12 04:15:49;;;;;;;11.95;7.50;;;11.40;89.30;;;;;;5016903;28;20159;-70
2021/09/12 04:18:15;;;;;;;11.60;8.55;;;11.30;89.40;;;;;;5015366;28;20053;-70
2021/09/12 04:20:41;;;;;;;12.32;8.00;;;11.30;89.30;;;;;;5017877;28;20037;-70
2021/09/12 04:23:06;;;;;;;12.15;7.68;;;11.20;89.50;;;;;;5016478;28;20022;-70
2021/09/12 04:25:32;;;;;;;15.27;8.18;;;11.10;89.50;;;;;;5009435;28;20022;-70
2021/09/12 04:27:57;;;;;;;13.93;8.15;;;11.10;89.50;;;;;;5009516;28;20038;-70
2021/09/12 04:30:26;;;;;;;13.80;8.38;;;11.10;89.30;;;;;;5015689;28;20365;-70
2021/09/12 04:32:52;;;;;;;13.02;7.85;;;11.10;89.30;;;;;;5016601;28;20029;-70
2021/09/12 04:35:17;;;;;;;12.30;8.38;;;11.10;89.40;;;;;;5015870;28;20026;-70
2021/09/12 04:37:43;;;;;;;14.88;8.68;;;11.10;89.40;;;;;;5016402;28;20022;-70
2021/09/12 04:40:10;;;;;;;17.80;7.93;;;11.00;89.40;;;;;;5013194;28;20050;-70
2021/09/12 04:42:35;;;;;;;15.57;8.10;;;11.10;89.20;;;;;;5015857;28;20466;-70
2021/09/12 04:45:02;;;;;;;13.80;7.90;;;11.10;89.20;;;;;;5012779;28;20033;-70
2021/09/12 04:47:28;;;;;;;11.82;7.63;;;11.10;89.40;;;;;;5006411;28;20026;-70
2021/09/12 04:49:53;;;;;;;15.45;8.50;;;11.10;89.40;;;;;;5013957;28;20456;-70
2021/09/12 04:52:19;;;;;;;15.48;8.48;;;11.10;89.30;;;;;;5011496;28;20034;-70
2021/09/12 04:54:45;;;;;;;11.30;6.35;;;11.00;89.40;;;;;;5007163;28;20030;-70
2021/09/12 04:57:10;;;;;;;14.85;7.75;;;10.90;89.50;;;;;;5016048;28;20029;-71
2021/09/12 04:59:39;;;;;;;11.20;7.75;;;11.00;89.30;;;;;;5015939;28;20033;-70
2021/09/12 05:02:05;;;;;;;12.88;7.70;;;11.00;89.20;;;;;;5013891;28;20044;-70
2021/09/12 05:04:31;;;;;;;12.65;7.57;;;11.10;89.30;;;;;;5009887;28;20022;-70
2021/09/12 05:06:56;;;;;;;14.55;7.43;;;11.10;89.20;;;;;;5015880;28;20304;-70
2021/09/12 05:09:23;;;;;;;11.02;7.10;;;11.10;89.30;;;;;;5010495;28;20110;-71
2021/09/12 05:11:49;;;;;;;13.85;8.75;;;11.10;89.20;;;;;;5012073;28;20300;-71
2021/09/12 05:14:15;;;;;;;13.80;7.75;;;11.20;89.20;;;;;;5015779;28;20022;-71
2021/09/12 05:16:41;;;;;;;14.80;8.57;;;11.30;89.30;;;;;;5006511;28;20297;-70
2021/09/12 05:19:07;;;;;;;13.93;8.45;;;11.10;89.70;;;;;;5011480;28;20376;-70
2021/09/12 05:21:32;;;;;;;12.80;7.53;;;11.10;89.30;;;;;;5013937;28;20084;-70
2021/09/12 05:23:58;;;;;;;18.45;8.60;;;11.10;89.20;;;;;;5013651;28;20030;-70
2021/09/12 05:26:23;;;;;;;12.85;7.38;;;11.20;89.30;;;;;;5013733;28;20057;-70
2021/09/12 05:28:49;;;;;;;11.48;7.53;;;11.20;89.30;;;;;;5014907;28;20037;-70
2021/09/12 05:31:15;;;;;;;11.30;7.30;;;11.20;89.30;;;;;;5014628;28;20037;-70
2021/09/12 05:33:40;;;;;;;14.85;7.28;;;11.20;89.30;;;;;;5013997;28;20407;-69
2021/09/12 05:36:06;;;;;;;10.52;7.35;;;11.20;89.40;;;;;;5015080;28;20378;-70
2021/09/12 05:38:32;;;;;;;10.80;7.63;;;11.30;89.10;;;;;;5012002;28;20041;-70
2021/09/12 05:40:58;;;;;;;12.70;7.78;;;11.30;89.20;;;;;;5011668;28;20038;-70
2021/09/12 05:43:23;;;;;;;13.18;8.40;;;11.30;89.20;;;;;;5013908;28;20072;-70
2021/09/12 05:45:49;;;;;;;13.48;7.32;;;11.30;89.20;;;;;;5015562;28;20026;-70
2021/09/12 05:48:15;;;;;;;12.48;7.95;;;11.30;89.10;;;;;;5016123;28;20028;-70
2021/09/12 05:50:40;;;;;;;13.00;7.30;;;11.30;89.20;;;;;;5016156;28;20485;-69
2021/09/12 05:53:09;;;;;;;14.82;7.07;;;11.40;89.10;;;;;;5015626;28;20117;-70
2021/09/12 05:55:35;;;;;;;11.48;7.20;;;11.50;89.10;;;;;;5015831;28;20022;-70
2021/09/12 05:58:00;;;;;;;10.15;6.78;;;11.50;89.20;;;;;;5015459;28;20026;-69
2021/09/12 06:00:26;;;;;;;12.85;6.68;;;11.60;89.10;;;;;;5015993;28;20406;-70
2021/09/12 06:02:52;;;;;;;9.15;6.40;;;11.70;89.10;;;;;;5016060;28;20315;-70
2021/09/12 06:05:18;;;;;;;10.18;7.10;;;11.80;89.00;;;;;;5004325;28;20049;-70
2021/09/12 06:07:43;;;;;;;11.68;7.93;;;11.90;89.10;;;;;;5015576;28;20052;-70
2021/09/12 06:10:11;;;;;;;9.00;6.40;;;11.90;89.20;;;;;;5001669;28;20030;-70
2021/09/12 06:12:37;;;;;;;10.32;6.65;;;11.90;89.20;;;;;;5017040;28;20057;-70
2021/09/12 06:15:04;;;;;;;11.77;7.10;;;11.90;89.00;;;;;;5010992;28;20030;-70
2021/09/12 06:17:29;;;;;;;10.30;6.68;;;12.00;89.00;;;;;;4997312;28;20080;-70
2021/09/12 06:19:58;;;;;;;9.75;7.20;;;12.10;88.90;;;;;;4996407;28;20438;-70
2021/09/12 06:22:23;;;;;;;10.07;6.93;;;12.20;88.90;;;;;;4996167;28;20474;-70
2021/09/12 06:24:52;;;;;;;11.75;7.63;;;12.20;88.90;;;;;;4995184;28;20038;-70
2021/09/12 06:27:18;;;;;;;13.90;7.55;;;12.30;88.90;;;;;;5007535;28;20032;-69
2021/09/12 06:29:44;;;;;;;12.23;7.63;;;12.30;88.90;;;;;;5015121;28;20053;-69
2021/09/12 06:32:09;;;;;;;11.10;7.07;;;12.40;88.90;;;;;;5014802;28;20022;-69
2021/09/12 06:34:35;;;;;;;9.40;6.68;;;12.50;88.90;;;;;;5015243;28;20033;-69
2021/09/12 06:37:01;;;;;;;9.25;6.93;;;12.60;88.90;;;;;;5015255;28;20395;-69
2021/09/12 06:39:26;;;;;;;11.35;6.85;;;12.70;88.80;;;;;;5013847;28;20034;-69
2021/09/12 06:41:52;;;;;;;9.25;6.85;;;12.80;88.90;;;;;;5015506;28;20033;-69
2021/09/12 06:44:18;;;;;;;9.88;6.60;;;12.80;88.90;;;;;;5015504;28;20053;-72
2021/09/12 06:46:43;;;;;;;11.50;7.15;;;12.80;88.90;;;;;;5015121;28;20022;-71
2021/09/12 06:49:09;;;;;;;9.75;6.75;;;12.80;89.00;;;;;;5015074;28;20037;-70
2021/09/12 06:51:35;;;;;;;8.70;6.32;;;12.90;88.80;;;;;;5015904;28;20378;-70
2021/09/12 06:54:01;;;;;;;10.48;7.20;;;13.10;88.70;;;;;;5017968;28;20049;-70
2021/09/12 06:56:27;;;;;;;9.15;6.30;;;13.10;88.80;;;;;;5018788;28;20036;-70
2021/09/12 06:58:52;;;;;;;11.77;7.72;;;13.30;88.60;;;;;;5018530;28;20084;-70
2021/09/12 07:01:18;;;;;;;10.10;6.30;;;13.40;88.80;;;;;;5014507;28;20319;-70
2021/09/12 07:03:43;;;;;;;8.05;5.93;;;13.50;88.70;;;;;;4999354;28;20038;-71
2021/09/12 07:06:09;;;;;;;8.85;5.95;;;13.80;88.50;;;;;;5014416;28;20473;-70
2021/09/12 07:08:36;;;;;;;8.40;5.88;;;14.10;88.40;;;;;;5013983;28;20053;-70
2021/09/12 07:11:03;;;;;;;11.65;7.22;;;14.20;88.60;;;;;;5014165;28;20046;-70
2021/09/12 07:13:29;;;;;;;9.07;6.18;;;14.30;88.90;;;;;;5016900;28;20121;-70
2021/09/12 07:15:54;;;;;;;12.38;6.68;;;14.30;89.00;;;;;;4999135;28;20113;-70
2021/09/12 07:18:20;;;;;;;10.57;6.57;;;14.20;89.10;;;;;;5012298;28;20022;-70
2021/09/12 07:20:46;;;;;;;12.13;7.38;;;14.20;89.20;;;;;;5018133;28;20419;-69
2021/09/12 07:23:11;;;;;;;12.68;7.05;;;14.20;89.10;;;;;;5005954;28;20462;-70
2021/09/12 07:25:37;;;;;;;14.57;8.68;;;14.20;89.40;;;;;;5018018;28;20145;-69
2021/09/12 07:28:03;;;;;;;14.80;7.60;;;14.40;89.40;;;;;;5018258;28;20026;-71
2021/09/12 07:30:28;;;;;;;14.73;9.25;;;14.70;88.40;;;;;;5018096;28;20030;-70
2021/09/12 07:32:54;;;;;;;11.65;8.60;;;14.70;90.40;;;;;;5018019;28;20033;-70
2021/09/12 07:35:23;;;;;;;11.95;8.25;;;14.80;89.90;;;;;;5017090;28;20064;-70
2021/09/12 07:37:48;;;;;;;10.48;8.05;;;15.00;89.70;;;;;;5017204;28;20139;-70
2021/09/12 07:40:14;;;;;;;11.00;7.38;;;15.20;91.10;;;;;;5012556;28;20132;-70
2021/09/12 07:42:41;;;;;;;10.82;7.53;;;15.40;91.30;;;;;;5018034;28;20026;-70
2021/09/12 07:45:08;;;;;;;11.98;7.30;;;15.60;92.50;;;;;;5016988;28;20036;-70
2021/09/12 07:47:33;;;;;;;12.07;7.75;;;15.70;95.10;;;;;;5016119;28;20026;-70
2021/09/12 07:50:02;;;;;;;12.10;7.45;;;15.70;94.80;;;;;;5015338;28;20043;-70
2021/09/12 07:52:28;;;;;;;10.18;7.05;;;15.90;96.70;;;;;;5013655;28;20041;-70
2021/09/12 07:54:54;;;;;;;9.25;6.82;;;15.90;98.00;;;;;;5010676;28;20076;-70
2021/09/12 07:57:19;;;;;;;9.07;6.95;;;15.90;98.00;;;;;;5015011;28;20034;-70
2021/09/12 07:59:45;;;;;;;11.18;7.00;;;16.00;98.00;;;;;;5014000;28;20030;-69
2021/09/12 08:02:11;;;;;;;10.90;6.88;;;16.10;98.00;;;;;;5014514;28;20037;-70
2021/09/12 08:04:36;;;;;;;11.25;6.68;;;16.20;98.00;;;;;;5013496;28;20307;-69
2021/09/12 08:07:02;;;;;;;8.90;4.20;;;16.40;98.00;;;;;;5011299;28;20092;-70
2021/09/12 08:09:31;;;;;;;5.68;3.25;;;16.90;98.00;;;;;;5011404;28;20105;-69
2021/09/12 08:11:56;;;;;;;6.88;3.08;;;17.90;98.00;;;;;;5012283;28;20045;-70
2021/09/12 08:14:22;;;;;;;7.53;3.20;;;19.00;98.00;;;;;;5013425;28;20026;-70
2021/09/12 08:16:48;;;;;;;6.85;2.85;;;20.40;98.00;;;;;;5016806;28;20470;-70
2021/09/12 08:19:13;;;;;;;4.97;2.95;;;20.80;98.00;;;;;;4996910;28;20312;-70
2021/09/12 08:21:39;;;;;;;5.95;2.85;;;21.20;95.40;;;;;;5013354;28;20117;-70
2021/09/12 08:24:05;;;;;;;5.25;2.70;;;21.20;93.50;;;;;;5011029;28;20034;-70
2021/09/12 08:26:31;;;;;;;5.10;2.95;;;21.50;96.20;;;;;;5012172;28;20445;-70
2021/09/12 08:28:57;;;;;;;4.68;2.47;;;22.00;93.40;;;;;;5012406;28;20069;-70
2021/09/12 08:31:22;;;;;;;4.97;2.40;;;22.00;91.80;;;;;;5011892;28;20148;-70
2021/09/12 08:33:48;;;;;;;3.97;2.60;;;22.90;90.30;;;;;;5014685;28;20033;-70
2021/09/12 08:36:14;;;;;;;5.18;2.60;;;23.50;86.40;;;;;;5014121;28;20031;-70
2021/09/12 08:38:39;;;;;;;4.35;2.50;;;23.00;85.10;;;;;;5015329;28;20054;-70
2021/09/12 08:41:07;;;;;;;4.00;2.28;;;22.30;86.40;;;;;;5016960;28;20072;-70
2021/09/12 08:43:34;;;;;;;6.53;2.40;;;21.80;86.60;;;;;;5015430;28;20034;-69
2021/09/12 08:46:00;;;;;;;6.28;2.90;;;20.90;88.30;;;;;;5016702;28;20026;-69
2021/09/12 08:48:26;;;;;;;5.15;2.70;;;20.40;91.00;;;;;;5012688;28;20104;-70
2021/09/12 08:50:52;;;;;;;5.72;2.83;;;20.00;92.30;;;;;;5016056;28;20118;-70
2021/09/12 08:53:20;;;;;;;6.22;3.15;;;19.60;93.90;;;;;;5014157;28;20427;-69
2021/09/12 08:55:45;;;;;;;5.70;3.15;;;19.30;94.60;;;;;;5015935;28;20069;-69
2021/09/12 08:58:13;;;;;;;5.53;3.03;;;19.20;95.60;;;;;;5016560;28;20049;-69
2021/09/12 09:00:44;;;;;;;5.85;2.83;;;19.50;95.50;;;;;;5015743;28;20407;-69
2021/09/12 09:03:11;;;;;;;6.55;3.13;;;19.80;94.90;;;;;;5016292;28;20033;-69
2021/09/12 09:05:40;;;;;;;5.55;3.10;;;20.10;94.10;;;;;;5016834;28;20029;-69
2021/09/12 09:08:07;;;;;;;6.80;2.85;;;19.90;94.50;;;;;;5015724;28;20486;-69
2021/09/12 09:10:44;;;;;;;7.72;3.20;;;20.30;94.60;;;;;;5015768;28;20041;-69
2021/09/12 09:13:45;;;;;;;4.93;2.90;;;20.20;93.10;;;;;;5014220;28;20419;-69
2021/09/12 09:16:28;;;;;;;4.93;2.90;;;20.00;95.00;;;;;;5016656;28;20326;-69
2021/09/12 09:19:05;;;;;;;4.63;2.80;;;20.10;95.00;;;;;;5012380;28;20092;-69
2021/09/12 09:21:37;;;;;;;8.18;2.97;;;20.20;94.60;;;;;;5015069;28;20630;-69
2021/09/12 09:24:17;;;;;;;5.50;3.05;;;20.50;93.90;;;;;;5015082;28;20061;-69
2021/09/12 09:26:57;;;;;;;4.95;3.22;;;20.80;92.20;;;;;;5014857;28;20030;-69
2021/09/12 09:29:35;;;;;;;7.07;3.20;;;21.00;92.50;;;;;;5016290;28;20319;-69
2021/09/12 09:32:07;;;;;;;6.82;3.20;;;21.70;90.60;;;;;;5016367;28;20026;-69
2021/09/12 09:34:37;;;;;;;5.35;3.00;;;22.00;89.10;;;;;;5004439;28;20125;-69
2021/09/12 09:37:22;;;;;;;5.05;3.00;;;22.00;88.70;;;;;;4996660;28;20019;-68
2021/09/12 09:39:50;;;;;;;5.43;2.80;;;22.60;88.60;;;;;;5005013;28;20374;-71
2021/09/12 09:42:33;;;;;;;4.68;2.58;;;22.80;85.50;;;;;;5016328;28;20029;-71
2021/09/12 09:45:01;;;;;;;5.18;2.45;;;23.10;83.50;;;;;;5015915;28;20040;-70
2021/09/12 09:47:27;;;;;;;7.40;2.40;;;23.40;82.30;;;;;;5016223;28;20123;-70
2021/09/12 09:50:05;;;;;;;6.60;3.00;;;23.70;82.80;;;;;;5016041;28;20163;-70
2021/09/12 09:52:35;;;;;;;4.95;2.67;;;24.30;79.80;;;;;;5015751;28;20061;-70
2021/09/12 09:55:03;;;;;;;4.55;2.40;;;24.10;81.00;;;;;;5014699;28;20068;-70
2021/09/12 09:57:29;;;;;;;3.83;2.17;;;23.80;81.60;;;;;;5015530;28;20026;-70
2021/09/12 09:59:57;;;;;;;4.78;2.30;;;23.60;79.10;;;;;;5015189;28;20037;-69
2021/09/12 10:02:23;;;;;;;3.72;1.67;;;23.90;79.30;;;;;;5004307;28;20041;-69
2021/09/12 10:04:49;;;;;;;4.18;1.67;;;24.20;72.20;;;;;;5015026;28;20109;-69
2021/09/12 10:07:15;;;;;;;3.72;1.70;;;24.10;73.10;;;;;;5014195;28;20029;-69
2021/09/12 10:09:41;;;;;;;3.40;1.83;;;24.20;74.90;;;;;;5014316;28;20100;-70
2021/09/12 10:12:10;;;;;;;4.10;2.03;;;24.90;75.30;;;;;;5015588;28;20030;-69
2021/09/12 10:14:40;;;;;;;3.35;1.98;;;24.60;76.60;;;;;;5015925;28;20049;-70
2021/09/12 10:17:13;;;;;;;6.68;2.08;;;24.50;77.00;;;;;;5015678;28;20026;-69
2021/09/12 10:19:41;;;;;;;3.93;1.93;;;24.30;78.20;;;;;;5015912;28;20046;-69
2021/09/12 10:22:14;;;;;;;3.45;1.40;;;23.90;76.50;;;;;;5014461;28;20026;-70
2021/09/12 10:24:58;;;;;;;;;;;24.40;74.80;;;;;;5013390;28;20358;-69
2021/09/12 10:27:35;;;;;;;4.03;1.70;;;24.90;74.60;;;;;;5018638;28;20290;-69
2021/09/12 10:30:23;;;;;;;4.88;2.38;;;25.60;73.50;;;;;;5019611;28;20116;-69
2021/09/12 10:32:51;;;;;;;4.38;2.00;;;25.20;74.10;;;;;;5017453;28;20037;-69
2021/09/12 10:35:26;;;;;;;3.35;1.73;;;24.20;74.20;;;;;;5012654;28;20022;-68
2021/09/12 10:38:01;;;;;;;3.17;1.70;;;24.00;75.60;;;;;;4999872;28;20026;-69
2021/09/12 10:40:56;;;;;;;4.13;1.95;;;23.90;75.60;;;;;;5016464;28;20042;-69
2021/09/12 10:43:28;;;;;;;3.35;1.90;;;24.10;75.20;;;;;;5017856;28;20474;-70
2021/09/12 10:45:56;;;;;;;3.55;1.40;;;24.30;74.90;;;;;;5034771;28;20116;-69
2021/09/12 10:48:22;;;;;;;4.55;2.17;;;24.60;71.00;;;;;;5019245;28;20026;-69
2021/09/12 10:50:51;;;;;;;3.38;1.80;;;24.80;73.00;;;;;;5018929;28;20419;-69
2021/09/12 10:53:18;;;;;;;3.67;1.80;;;25.10;73.80;;;;;;5017673;28;20418;-69
2021/09/12 10:56:03;;;;;;;5.15;1.90;;;25.30;72.30;;;;;;5019525;28;20056;-69
2021/09/12 10:58:31;;;;;;;2.90;1.52;;;25.50;71.40;;;;;;5018081;28;20053;-69
2021/09/12 11:00:59;;;;;;;4.57;1.95;;;25.40;72.20;;;;;;5018985;28;20029;-69
2021/09/12 11:03:30;;;;;;;3.58;1.67;;;25.10;72.20;;;;;;5013059;28;20097;-69
2021/09/12 11:05:57;;;;;;;3.00;1.50;;;24.90;73.50;;;;;;4999521;28;20033;-69
2021/09/12 11:08:37;;;;;;;3.13;1.73;;;24.60;72.70;;;;;;4998086;28;20026;-69
2021/09/12 11:11:05;;;;;;;4.93;1.40;;;25.20;71.80;;;;;;4999313;28;20145;-70
2021/09/12 11:13:32;;;;;;;3.72;1.40;;;25.80;69.50;;;;;;4999119;28;20110;-69
2021/09/12 11:16:12;;;;;;;2.83;1.40;;;26.00;69.50;;;;;;4999076;28;20327;-69
2021/09/12 11:18:51;;;;;;;3.67;1.60;;;25.90;69.70;;;;;;4999137;28;20551;-69
2021/09/12 11:21:32;;;;;;;3.75;1.55;;;25.90;68.20;;;;;;5010884;28;20072;-69
2021/09/12 11:24:07;;;;;;;3.20;1.40;;;25.80;69.00;;;;;;5017026;28;20427;-70
2021/09/12 11:26:41;;;;;;;3.35;1.42;;;25.70;67.40;;;;;;5018292;28;20108;-69
2021/09/12 11:29:12;;;;;;;2.50;1.30;;;25.80;69.40;;;;;;5018560;28;20029;-69
2021/09/12 11:31:39;;;;;;;4.53;1.55;;;25.70;67.40;;;;;;5018451;28;20041;-70
2021/09/12 11:34:05;;;;;;;3.03;1.33;;;25.90;65.70;;;;;;5017800;28;20137;-70
2021/09/12 11:36:54;;;;;;;2.80;1.45;;;25.90;66.20;;;;;;5000086;28;20062;-69
2021/09/12 11:39:41;;;;;;;4.95;1.60;;;25.80;66.10;;;;;;4997357;28;20323;-70
2021/09/12 11:42:10;;;;;;;2.55;1.30;;;25.80;68.70;;;;;;5001358;28;20024;-69
2021/09/12 11:44:38;;;;;;;5.80;1.50;;;25.80;66.00;;;;;;5017861;28;20110;-69
2021/09/12 11:47:12;;;;;;;3.55;1.40;;;25.30;67.00;;;;;;5018199;28;20021;-69
2021/09/12 11:49:39;;;;;;;3.90;1.50;;;25.40;68.30;;;;;;5018142;28;20318;-69
2021/09/12 11:52:06;;;;;;;3.28;1.50;;;25.70;67.10;;;;;;5017651;28;20065;-69
2021/09/12 11:54:35;;;;;;;3.42;1.55;;;25.80;68.50;;;;;;5016220;28;20068;-69
2021/09/12 11:57:08;;;;;;;3.30;1.60;;;25.60;67.40;;;;;;5017701;28;20108;-69
2021/09/12 11:59:46;;;;;;;3.30;1.40;;;25.30;67.40;;;;;;5017965;28;20464;-69
2021/09/12 12:02:19;;;;;;;3.17;1.50;;;24.90;68.70;;;;;;5017345;28;20046;-69
2021/09/12 12:04:46;;;;;;;4.05;1.63;;;24.60;69.10;;;;;;5017594;28;20041;-69
2021/09/12 12:07:11;;;;;;;4.18;1.27;;;24.90;67.90;;;;;;5015744;28;20034;-69
2021/09/12 12:09:48;;;;;;;3.58;1.63;;;25.20;70.70;;;;;;4996979;28;20323;-69
2021/09/12 12:12:19;;;;;;;3.45;1.45;;;25.90;68.90;;;;;;4998094;28;20041;-70
2021/09/12 12:14:58;;;;;;;3.13;1.50;;;26.40;67.30;;;;;;4998109;28;20396;-69
2021/09/12 12:17:25;;;;;;;4.07;1.48;;;25.70;65.30;;;;;;4998126;28;20401;-70
2021/09/12 12:19:56;;;;;;;4.05;1.48;;;25.50;67.40;;;;;;4998054;28;20026;-69
2021/09/12 12:22:23;;;;;;;3.20;1.33;;;25.20;67.20;;;;;;4997887;28;20038;-69
2021/09/12 12:24:54;;;;;;;3.78;1.60;;;24.80;68.20;;;;;;5003940;28;20030;-68
2021/09/12 12:27:21;;;;;;;3.67;1.55;;;25.10;67.90;;;;;;5014777;28;20034;-69
2021/09/12 12:30:07;;;;;;;4.65;1.88;;;25.50;67.00;;;;;;5004869;28;20021;-68
2021/09/12 12:32:34;;;;;;;4.00;1.55;;;26.10;69.90;;;;;;5017264;28;20026;-69
2021/09/12 12:35:16;;;;;;;4.20;1.77;;;26.00;66.50;;;;;;5017298;28;20022;-71
2021/09/12 12:37:43;;;;;;;5.10;1.50;;;25.10;68.70;;;;;;5017297;28;20354;-70
2021/09/12 12:40:26;;;;;;;3.42;1.58;;;24.90;69.50;;;;;;5015940;28;20124;-70
2021/09/12 12:43:06;;;;;;;2.60;1.50;;;24.40;71.50;;;;;;5017178;28;20025;-70
2021/09/12 12:45:35;;;;;;;3.75;1.60;;;24.40;69.50;;;;;;5017053;28;20289;-69